Time;durP1;ratioP1;P1;durP2;ratioP2;P2;SDS_P1;SDS_P2;PMS_P1;PMS_P2;Temp;Humidity;BMP_temperature;BMP_pressure;BME280_temperature;BME280_humidity;BME280_pressure;Samples;Min_cycle;Max_cycle;Signal;HPM_P1;HPM_P2
2021/05/08 00:04:24;;;;;;;3.80;0.83;;;;;;;;;;10111271;28;20039;-63
2021/05/08 00:09:21;;;;;;;2.20;0.70;;;;;;;;;;10130837;28;20035;-64
2021/05/08 00:14:19;;;;;;;1.53;1.37;;;;;;;;;;10100687;28;20058;-63
2021/05/08 00:19:17;;;;;;;2.47;0.70;;;;;;;;;;10115492;28;20035;-63
2021/05/08 00:24:14;;;;;;;3.70;1.20;;;;;;;;;;10130161;28;20157;-63
2021/05/08 00:29:11;;;;;;;2.97;1.60;;;;;;;;;;10112283;28;20035;-63
2021/05/08 00:34:09;;;;;;;0.93;0.80;;;;;;;;;;10133566;28;20106;-63
2021/05/08 00:39:06;;;;;;;1.30;0.87;;;;;;;;;;10112797;28;20453;-63
2021/05/08 00:44:06;;;;;;;1.85;1.10;;;;;;;;;;10120496;28;20043;-63
2021/05/08 00:49:05;;;;;;;3.33;1.42;;;;;;;;;;10141146;28;20032;-63
2021/05/08 00:54:03;;;;;;;2.75;1.30;;;;;;;;;;10119342;28;20043;-62
2021/05/08 00:59:01;;;;;;;2.17;0.80;;;;;;;;;;10131906;28;20498;-64
2021/05/08 01:03:58;;;;;;;9.50;0.80;;;;;;;;;;10140661;28;20062;-65
2021/05/08 01:08:56;;;;;;;2.70;0.90;;;;;;;;;;10129410;28;20509;-64
2021/05/08 01:13:54;;;;;;;1.45;0.95;;;;;;;;;;10124180;28;20031;-65
2021/05/08 01:18:56;;;;;;;2.95;1.02;;;;;;;;;;10123342;28;20045;-64
2021/05/08 01:23:54;;;;;;;6.00;1.45;;;;;;;;;;10144297;28;20181;-64
2021/05/08 01:28:52;;;;;;;0.80;0.70;;;;;;;;;;10135116;28;20036;-64
2021/05/08 01:33:51;;;;;;;12.70;2.13;;;;;;;;;;10138002;28;20031;-64
2021/05/08 01:38:50;;;;;;;2.22;0.90;;;;;;;;;;10121256;28;20122;-64
2021/05/08 01:43:48;;;;;;;6.30;2.33;;;;;;;;;;10139868;28;20546;-64
2021/05/08 01:48:46;;;;;;;3.23;1.10;;;;;;;;;;10123626;28;20031;-64
2021/05/08 01:53:44;;;;;;;5.67;2.33;;;;;;;;;;10123409;28;20039;-64
2021/05/08 01:58:41;;;;;;;7.53;2.40;;;;;;;;;;10139301;28;20035;-64
2021/05/08 02:03:39;;;;;;;6.68;2.38;;;;;;;;;;10125204;28;20023;-64
2021/05/08 02:08:39;;;;;;;2.97;1.30;;;;;;;;;;10126231;28;20031;-64
2021/05/08 02:13:41;;;;;;;5.25;1.98;;;;;;;;;;10124504;28;20042;-64
2021/05/08 02:18:40;;;;;;;3.72;1.95;;;;;;;;;;10123824;28;20053;-64
2021/05/08 02:23:38;;;;;;;3.20;1.47;;;;;;;;;;10142784;28;20039;-64
2021/05/08 02:28:35;;;;;;;10.87;2.10;;;;;;;;;;10142362;28;20033;-63
2021/05/08 02:33:33;;;;;;;7.67;1.70;;;;;;;;;;10129316;28;20028;-64
2021/05/08 02:38:31;;;;;;;2.80;1.95;;;;;;;;;;10128561;28;20438;-64
2021/05/08 02:43:28;;;;;;;1.93;1.33;;;;;;;;;;10143140;28;20039;-63
2021/05/08 02:48:36;;;;;;;3.50;1.77;;;;;;;;;;10170692;28;20363;-63
2021/05/08 02:53:34;;;;;;;1.43;1.13;;;;;;;;;;10156848;28;20023;-64
2021/05/08 02:58:33;;;;;;;10.85;2.45;;;;;;;;;;10140969;28;20023;-63
2021/05/08 03:03:32;;;;;;;1.25;0.68;;;;;;;;;;10135364;28;20509;-64
2021/05/08 03:08:30;;;;;;;2.53;1.45;;;;;;;;;;10101796;28;20015;-63
2021/05/08 03:13:30;;;;;;;1.00;0.90;;;;;;;;;;10129190;28;20057;-63
2021/05/08 03:18:29;;;;;;;1.48;1.08;;;;;;;;;;10151463;28;20122;-64
2021/05/08 03:23:27;;;;;;;8.80;1.77;;;;;;;;;;10149888;28;20038;-63
2021/05/08 03:28:25;;;;;;;4.73;1.63;;;;;;;;;;10163774;28;20061;-64
2021/05/08 03:33:23;;;;;;;2.58;1.70;;;;;;;;;;10151593;28;20035;-63
2021/05/08 03:38:20;;;;;;;4.47;2.23;;;;;;;;;;10166360;28;20039;-63
2021/05/08 03:43:18;;;;;;;1.27;1.17;;;;;;;;;;10169813;28;20046;-63
2021/05/08 03:48:15;;;;;;;3.37;1.20;;;;;;;;;;10162304;28;20396;-64
2021/05/08 03:53:13;;;;;;;4.30;2.70;;;;;;;;;;10163289;28;20146;-67
2021/05/08 03:58:10;;;;;;;5.57;1.53;;;;;;;;;;10152246;28;20375;-67
2021/05/08 04:03:08;;;;;;;2.50;1.67;;;;;;;;;;10167522;28;20039;-68
2021/05/08 04:08:05;;;;;;;7.43;1.47;;;;;;;;;;10110908;28;20074;-69
2021/05/08 04:13:03;;;;;;;3.93;1.50;;;;;;;;;;10152920;28;20043;-67
2021/05/08 04:18:01;;;;;;;1.37;1.10;;;;;;;;;;10165883;28;20041;-67
2021/05/08 04:22:58;;;;;;;3.33;1.53;;;;;;;;;;10151965;28;20050;-70
2021/05/08 04:27:56;;;;;;;3.17;2.93;;;;;;;;;;10135705;28;20074;-67
2021/05/08 04:32:53;;;;;;;3.70;1.83;;;;;;;;;;10183740;28;20053;-66
2021/05/08 04:37:51;;;;;;;6.10;2.60;;;;;;;;;;10165916;28;20508;-70
2021/05/08 04:42:48;;;;;;;1.83;1.60;;;;;;;;;;10183182;28;20098;-67
2021/05/08 04:47:45;;;;;;;2.17;1.53;;;;;;;;;;10155086;28;20525;-68
2021/05/08 04:52:43;;;;;;;2.80;1.47;;;;;;;;;;10102419;28;20561;-67
2021/05/08 04:57:41;;;;;;;1.17;1.17;;;;;;;;;;10125675;28;21293;-65
2021/05/08 05:02:42;;;;;;;2.73;1.30;;;;;;;;;;10126824;28;20042;-64
2021/05/08 05:07:45;;;;;;;4.07;1.20;;;;;;;;;;10134180;28;20387;-63
2021/05/08 05:12:47;;;;;;;2.15;1.50;;;;;;;;;;10134050;28;20189;-62
2021/05/08 05:17:45;;;;;;;4.50;2.03;;;;;;;;;;10129279;28;20106;-64
2021/05/08 05:22:43;;;;;;;1.27;1.27;;;;;;;;;;10104537;28;20623;-63
2021/05/08 05:27:40;;;;;;;1.87;1.77;;;;;;;;;;10122355;28;20043;-63
2021/05/08 05:32:38;;;;;;;3.53;1.83;;;;;;;;;;10133552;28;20066;-63
2021/05/08 05:37:35;;;;;;;1.87;1.77;;;;;;;;;;10112656;28;20106;-64
2021/05/08 05:42:33;;;;;;;6.57;2.87;;;;;;;;;;10140326;28;20577;-64
2021/05/08 05:47:32;;;;;;;2.30;1.27;;;;;;;;;;10133531;28;20401;-65
2021/05/08 05:52:29;;;;;;;4.60;1.67;;;;;;;;;;10134454;28;20043;-67
2021/05/08 05:57:26;;;;;;;3.63;2.07;;;;;;;;;;10138998;28;20031;-66
2021/05/08 06:02:24;;;;;;;2.57;1.40;;;;;;;;;;10118836;28;20383;-66
2021/05/08 06:07:21;;;;;;;3.40;2.53;;;;;;;;;;10138679;28;20097;-67
2021/05/08 06:12:19;;;;;;;3.50;1.70;;;;;;;;;;10131667;28;20035;-65
2021/05/08 06:17:16;;;;;;;1.33;0.83;;;;;;;;;;10134539;28;20043;-70
2021/05/08 06:22:15;;;;;;;2.40;0.90;;;;;;;;;;10117470;28;20031;-67
2021/05/08 06:27:12;;;;;;;2.90;1.52;;;;;;;;;;10128676;28;20054;-63
2021/05/08 06:32:10;;;;;;;3.80;1.53;;;;;;;;;;10131288;28;20035;-62
2021/05/08 06:37:07;;;;;;;4.20;2.20;;;;;;;;;;10136720;28;21199;-63
2021/05/08 06:42:05;;;;;;;3.40;1.40;;;;;;;;;;10135806;28;20417;-65
2021/05/08 06:52:16;;;;;;;3.60;1.10;;;;;;;;;;10369701;23;20070;-63
2021/05/08 06:57:13;;;;;;;7.03;1.83;;;;;;;;;;10116179;28;20042;-60
2021/05/08 07:02:11;;;;;;;4.90;1.53;;;;;;;;;;10128889;28;20072;-62
2021/05/08 07:07:09;;;;;;;8.40;1.80;;;;;;;;;;10199412;23;20286;-67
2021/05/08 07:12:06;;;;;;;3.83;1.30;;;;;;;;;;10188156;28;20034;-67
2021/05/08 07:17:04;;;;;;;3.10;1.30;;;;;;;;;;10193431;28;20049;-67
2021/05/08 07:22:02;;;;;;;3.80;1.60;;;;;;;;;;10189067;28;20034;-66
2021/05/08 07:26:59;;;;;;;6.53;1.47;;;;;;;;;;10189183;28;20056;-66
2021/05/08 07:31:57;;;;;;;1.70;1.20;;;;;;;;;;10170701;28;20065;-66
2021/05/08 07:36:54;;;;;;;3.97;1.37;;;;;;;;;;10174975;28;20042;-66
2021/05/08 07:41:52;;;;;;;2.00;1.47;;;;;;;;;;10166713;28;20160;-66
2021/05/08 07:46:50;;;;;;;2.37;1.03;;;;;;;;;;10169394;28;20523;-66
2021/05/08 07:51:47;;;;;;;4.10;1.10;;;;;;;;;;10164839;23;20050;-64
2021/05/08 07:56:45;;;;;;;0.93;0.47;;;;;;;;;;10156331;28;20495;-64
2021/05/08 08:01:42;;;;;;;2.03;1.23;;;;;;;;;;10172786;28;20038;-64
2021/05/08 08:06:40;;;;;;;3.97;0.73;;;;;;;;;;10174097;28;20507;-66
2021/05/08 08:11:37;;;;;;;2.60;1.13;;;;;;;;;;10199498;28;20050;-64
2021/05/08 08:16:34;;;;;;;5.30;0.97;;;;;;;;;;10185834;28;20177;-65
2021/05/08 08:21:32;;;;;;;1.10;0.83;;;;;;;;;;10186207;28;20182;-64
2021/05/08 08:26:29;;;;;;;10.30;2.23;;;;;;;;;;10205962;28;20688;-65
2021/05/08 08:31:28;;;;;;;2.23;0.93;;;;;;;;;;10184986;28;20134;-65
2021/05/08 08:36:25;;;;;;;;;;;;;;;;;;10184200;23;20050;-67
2021/05/08 08:41:23;;;;;;;2.92;1.00;;;;;;;;;;10182880;28;19930;-66
2021/05/08 08:46:20;;;;;;;1.48;0.90;;;;;;;;;;10184639;28;20035;-66
2021/05/08 08:51:18;;;;;;;4.37;1.23;;;;;;;;;;10183259;28;20027;-67
2021/05/08 08:56:16;;;;;;;2.95;1.40;;;;;;;;;;10202067;28;20042;-66
2021/05/08 09:01:14;;;;;;;;;;;;;;;;;;10194781;28;20588;-67
2021/05/08 09:06:11;;;;;;;0.57;0.52;;;;;;;;;;10189256;28;19920;-66
2021/05/08 09:11:24;;;;;;;10.38;1.38;;;;;;;;;;10196459;28;20030;-67
2021/05/08 09:16:22;;;;;;;0.55;0.45;;;;;;;;;;10191445;28;20077;-66
2021/05/08 09:21:27;;;;;;;3.93;1.10;;;;;;;;;;10196661;28;20039;-66
2021/05/08 09:26:36;;;;;;;1.55;0.77;;;;;;;;;;10201113;28;20086;-66
2021/05/08 09:31:34;;;;;;;2.08;0.77;;;;;;;;;;10197176;28;20117;-66
2021/05/08 09:36:48;;;;;;;2.15;1.10;;;;;;;;;;10202881;28;20507;-67
2021/05/08 09:41:46;;;;;;;2.75;0.30;;;;;;;;;;10189761;28;20058;-66
2021/05/08 09:46:43;;;;;;;1.63;0.55;;;;;;;;;;10202145;28;20503;-67
2021/05/08 09:51:41;;;;;;;0.50;0.50;;;;;;;;;;10179330;28;20030;-66
2021/05/08 09:56:42;;;;;;;3.55;0.75;;;;;;;;;;10189503;28;20038;-66
2021/05/08 10:01:40;;;;;;;1.52;0.70;;;;;;;;;;10197461;28;20507;-65
2021/05/08 10:06:37;;;;;;;1.60;0.73;;;;;;;;;;10173209;28;20516;-67
2021/05/08 10:11:35;;;;;;;2.00;1.03;;;;;;;;;;10194720;28;20039;-66
2021/05/08 10:16:32;;;;;;;2.20;1.63;;;;;;;;;;10188787;28;20040;-66
2021/05/08 10:21:29;;;;;;;0.90;0.60;;;;;;;;;;10182048;28;20038;-66
2021/05/08 10:26:27;;;;;;;2.70;0.57;;;;;;;;;;10184258;28;20031;-66
2021/05/08 10:31:24;;;;;;;3.50;1.20;;;;;;;;;;10181153;28;20121;-66
2021/05/08 10:36:40;;;;;;;3.03;1.13;;;;;;;;;;10176883;28;20042;-64
2021/05/08 10:41:53;;;;;;;1.75;0.60;;;;;;;;;;10168265;28;20073;-65
2021/05/08 10:46:53;;;;;;;2.58;1.40;;;;;;;;;;10178804;28;20037;-65
2021/05/08 10:52:00;;;;;;;4.35;1.83;;;;;;;;;;10179802;28;20047;-65
2021/05/08 10:57:16;;;;;;;4.68;0.85;;;;;;;;;;10179212;28;20039;-65
2021/05/08 11:02:34;;;;;;;1.42;0.80;;;;;;;;;;10173014;28;20101;-66
2021/05/08 11:07:31;;;;;;;5.32;2.35;;;;;;;;;;10165958;28;20035;-65
2021/05/08 11:12:49;;;;;;;0.57;0.40;;;;;;;;;;10186941;28;20558;-66
2021/05/08 11:18:02;;;;;;;2.42;0.55;;;;;;;;;;10171267;28;20321;-65
2021/05/08 11:23:17;;;;;;;2.70;0.40;;;;;;;;;;10171010;28;20520;-65
2021/05/08 11:28:15;;;;;;;1.38;0.52;;;;;;;;;;10176874;28;20586;-65
2021/05/08 11:33:12;;;;;;;;;;;;;;;;;;10168452;28;20105;-66
2021/05/08 11:38:18;;;;;;;0.60;0.40;;;;;;;;;;10180928;28;20394;-66
2021/05/08 11:43:26;;;;;;;1.63;0.70;;;;;;;;;;10185022;28;20171;-66
2021/05/08 11:48:24;;;;;;;5.10;1.40;;;;;;;;;;10184166;28;20504;-66
2021/05/08 11:53:22;;;;;;;;;;;;;;;;;;10149231;28;20408;-67
2021/05/08 11:58:26;;;;;;;0.55;0.55;;;;;;;;;;10178476;28;19914;-65
2021/05/08 12:03:24;;;;;;;1.85;0.50;;;;;;;;;;10164327;28;20416;-67
2021/05/08 12:08:22;;;;;;;0.55;0.43;;;;;;;;;;10181182;28;20031;-68
2021/05/08 12:13:26;;;;;;;3.00;1.15;;;;;;;;;;10177041;28;20133;-67
2021/05/08 12:18:24;;;;;;;2.92;1.02;;;;;;;;;;10180299;28;20122;-66
2021/05/08 12:23:21;;;;;;;;;;;;;;;;;;10175637;28;20042;-66
2021/05/08 12:28:20;;;;;;;2.63;1.30;;;;;;;;;;10169528;28;19961;-66
2021/05/08 12:33:19;;;;;;;3.72;1.52;;;;;;;;;;10179687;28;20034;-66
2021/05/08 12:38:16;;;;;;;0.73;0.73;;;;;;;;;;10185618;28;20439;-66
2021/05/08 12:43:26;;;;;;;0.77;0.70;;;;;;;;;;10168408;28;20035;-66
2021/05/08 12:48:31;;;;;;;3.22;1.42;;;;;;;;;;10185932;28;20686;-65
2021/05/08 12:53:28;;;;;;;3.08;2.30;;;;;;;;;;10195496;28;20038;-65
2021/05/08 12:58:33;;;;;;;3.93;2.10;;;;;;;;;;10159644;28;20038;-65
2021/05/08 13:08:40;;;;;;;5.22;2.95;;;;;;;;;;10195224;28;20038;-66
2021/05/08 13:13:38;;;;;;;2.05;0.95;;;;;;;;;;10182260;28;20042;-67
2021/05/08 13:18:35;;;;;;;1.13;0.40;;;;;;;;;;10182811;28;20039;-66
2021/05/08 13:23:33;;;;;;;1.87;0.57;;;;;;;;;;10182913;28;20529;-67
2021/05/08 13:28:30;;;;;;;0.52;0.47;;;;;;;;;;10166756;28;20428;-67
2021/05/08 13:33:27;;;;;;;0.60;0.40;;;;;;;;;;10184783;28;20034;-67
2021/05/08 13:38:25;;;;;;;0.50;0.50;;;;;;;;;;10183037;28;20102;-67
2021/05/08 13:43:23;;;;;;;2.45;1.13;;;;;;;;;;10178974;28;20524;-66
2021/05/08 13:48:20;;;;;;;1.47;0.80;;;;;;;;;;10167616;28;20054;-67
2021/05/08 13:53:17;;;;;;;4.90;3.57;;;;;;;;;;10181464;28;20050;-66
2021/05/08 13:58:15;;;;;;;7.20;3.87;;;;;;;;;;10191385;28;20551;-67
2021/05/08 14:03:12;;;;;;;7.97;3.07;;;;;;;;;;10176259;28;20404;-67
2021/05/08 14:08:10;;;;;;;1.90;0.50;;;;;;;;;;10180004;28;20056;-67
2021/05/08 14:13:07;;;;;;;3.00;1.40;;;;;;;;;;10190837;28;20526;-67
2021/05/08 14:18:05;;;;;;;1.15;0.80;;;;;;;;;;10175387;28;20142;-67
2021/05/08 14:23:03;;;;;;;5.83;0.70;;;;;;;;;;10174812;28;20137;-67
2021/05/08 14:28:00;;;;;;;4.03;2.30;;;;;;;;;;10175198;28;20571;-67
2021/05/08 14:32:57;;;;;;;8.13;1.63;;;;;;;;;;10172876;28;20610;-67
2021/05/08 14:48:23;;;;;;;3.35;1.77;;;;;;;;;;11137678;22;20087;-63
2021/05/08 14:53:20;;;;;;;7.15;2.83;;;;;;;;;;10183793;28;20030;-61
2021/05/08 14:58:17;;;;;;;1.10;0.80;;;;;;;;;;10184399;28;20045;-63
2021/05/08 15:03:15;;;;;;;4.50;2.80;;;;;;;;;;10177330;28;20078;-64
2021/05/08 15:08:12;;;;;;;0.80;0.80;;;;;;;;;;10167839;28;20038;-64
2021/05/08 15:13:10;;;;;;;2.63;2.07;;;;;;;;;;10168479;28;20069;-63
2021/05/08 15:18:07;;;;;;;4.40;1.27;;;;;;;;;;10177626;28;20041;-65
2021/05/08 15:23:06;;;;;;;3.30;1.70;;;;;;;;;;10181129;28;20496;-63
2021/05/08 15:28:04;;;;;;;6.07;1.70;;;;;;;;;;10174316;28;20035;-64
2021/05/08 15:33:01;;;;;;;4.70;2.40;;;;;;;;;;10176149;28;20048;-64
2021/05/08 15:37:59;;;;;;;6.17;2.43;;;;;;;;;;10177387;28;20051;-64
2021/05/08 15:42:56;;;;;;;2.70;2.10;;;;;;;;;;10177670;28;20034;-65
2021/05/08 15:47:53;;;;;;;3.80;1.57;;;;;;;;;;10174531;28;20108;-64
2021/05/08 15:52:51;;;;;;;3.67;1.33;;;;;;;;;;10176726;28;20199;-65
2021/05/08 15:57:48;;;;;;;2.33;1.07;;;;;;;;;;10168859;28;20548;-64
2021/05/08 16:02:46;;;;;;;3.43;1.37;;;;;;;;;;10168345;28;20464;-64
2021/05/08 16:07:44;;;;;;;2.43;1.87;;;;;;;;;;10173540;28;20034;-63
2021/05/08 16:12:41;;;;;;;2.55;1.00;;;;;;;;;;10166215;28;20471;-63
2021/05/08 16:17:39;;;;;;;2.10;2.00;;;;;;;;;;10162552;28;20083;-65
2021/05/08 16:22:36;;;;;;;3.13;1.73;;;;;;;;;;10178465;28;20047;-65
2021/05/08 16:27:34;;;;;;;3.87;1.40;;;;;;;;;;10168253;28;20096;-63
2021/05/08 16:32:31;;;;;;;2.63;1.53;;;;;;;;;;10183579;28;20041;-63
2021/05/08 16:37:28;;;;;;;1.53;1.43;;;;;;;;;;10157575;28;20038;-63
2021/05/08 16:42:26;;;;;;;1.80;1.57;;;;;;;;;;10175113;28;20054;-63
2021/05/08 16:47:33;;;;;;;3.80;1.57;;;;;;;;;;10166432;28;20566;-62
2021/05/08 16:52:31;;;;;;;6.78;1.30;;;;;;;;;;10175860;28;20122;-62
2021/05/08 16:57:28;;;;;;;0.70;0.63;;;;;;;;;;10147610;28;20122;-64
2021/05/08 17:02:26;;;;;;;0.60;0.60;;;;;;;;;;10183027;28;20089;-64
2021/05/08 17:07:23;;;;;;;6.23;1.60;;;;;;;;;;10155648;28;20490;-61
2021/05/08 17:12:21;;;;;;;0.93;0.70;;;;;;;;;;10118976;28;20735;-61
2021/05/08 17:17:19;;;;;;;0.70;0.70;;;;;;;;;;10161319;28;20023;-62
2021/05/08 17:22:17;;;;;;;1.60;0.80;;;;;;;;;;10169107;28;20086;-61
2021/05/08 17:37:27;;;;;;;1.25;0.85;;;;;;;;;;10134935;28;20042;-62
2021/05/08 17:42:24;;;;;;;1.10;1.03;;;;;;;;;;10145257;28;20455;-62
2021/05/08 17:47:22;;;;;;;2.83;0.90;;;;;;;;;;10114096;28;20073;-63
2021/05/08 17:52:19;;;;;;;3.90;1.33;;;;;;;;;;10126725;28;20188;-61
2021/05/08 17:57:16;;;;;;;3.30;0.83;;;;;;;;;;10138205;28;20109;-64
2021/05/08 18:02:15;;;;;;;1.23;1.13;;;;;;;;;;10143140;28;20023;-63
2021/05/08 18:07:12;;;;;;;;;;;;;;;;;;10141222;28;20516;-63
2021/05/08 18:12:10;;;;;;;1.58;1.33;;;;;;;;;;10134887;28;19973;-62
2021/05/08 18:17:07;;;;;;;0.83;0.77;;;;;;;;;;10123615;28;20118;-64
2021/05/08 18:22:04;;;;;;;1.87;1.03;;;;;;;;;;10146713;28;20030;-62
2021/05/08 18:27:02;;;;;;;3.97;1.07;;;;;;;;;;10143835;28;20046;-62
2021/05/08 18:31:59;;;;;;;2.10;1.57;;;;;;;;;;10146148;28;20043;-63
2021/05/08 18:36:57;;;;;;;4.50;1.73;;;;;;;;;;10146999;28;20504;-64
2021/05/08 18:41:54;;;;;;;2.17;1.27;;;;;;;;;;10142621;28;20046;-63
2021/05/08 18:46:51;;;;;;;1.77;1.53;;;;;;;;;;10152653;28;20452;-63
2021/05/08 18:51:49;;;;;;;2.13;1.47;;;;;;;;;;10132386;28;20526;-65
2021/05/08 18:56:46;;;;;;;2.33;1.33;;;;;;;;;;10147939;28;20070;-63
2021/05/08 19:01:44;;;;;;;2.50;1.40;;;;;;;;;;10131939;28;20043;-64
2021/05/08 19:06:41;;;;;;;2.47;1.73;;;;;;;;;;10145090;28;20038;-63
2021/05/08 19:11:40;;;;;;;4.00;2.00;;;;;;;;;;10147337;28;20065;-62
2021/05/08 19:16:38;;;;;;;2.45;1.58;;;;;;;;;;10152820;28;20031;-63
2021/05/08 19:21:35;;;;;;;3.47;2.30;;;;;;;;;;10138754;28;20043;-63
2021/05/08 19:26:33;;;;;;;2.90;2.00;;;;;;;;;;10147413;28;20031;-62
2021/05/08 19:31:30;;;;;;;4.03;2.13;;;;;;;;;;10152097;28;20046;-64
2021/05/08 19:36:27;;;;;;;3.10;1.90;;;;;;;;;;10145016;28;20035;-65
2021/05/08 19:41:25;;;;;;;4.90;2.23;;;;;;;;;;10147006;28;20053;-63
2021/05/08 19:46:23;;;;;;;3.13;2.27;;;;;;;;;;10150904;28;20034;-63
2021/05/08 19:51:21;;;;;;;2.85;1.98;;;;;;;;;;10152399;28;20035;-63
2021/05/08 19:56:18;;;;;;;3.20;2.50;;;;;;;;;;10145539;28;20039;-62
2021/05/08 20:01:15;;;;;;;3.80;2.73;;;;;;;;;;10154607;28;20492;-63
2021/05/08 20:06:13;;;;;;;4.57;2.47;;;;;;;;;;10151665;28;20039;-62
2021/05/08 20:11:10;;;;;;;2.27;1.47;;;;;;;;;;10139522;28;20487;-62
2021/05/08 20:16:08;;;;;;;2.37;2.00;;;;;;;;;;10147729;28;20046;-62
2021/05/08 20:21:05;;;;;;;1.60;1.50;;;;;;;;;;10147978;28;20508;-61
2021/05/08 20:26:02;;;;;;;3.20;1.77;;;;;;;;;;10125749;28;20031;-59
2021/05/08 20:31:00;;;;;;;2.40;1.70;;;;;;;;;;10143642;28;20046;-61
2021/05/08 20:35:57;;;;;;;1.83;1.50;;;;;;;;;;10142947;28;20035;-61
2021/05/08 20:40:55;;;;;;;3.10;2.23;;;;;;;;;;10120237;28;20057;-60
2021/05/08 20:45:52;;;;;;;3.60;1.90;;;;;;;;;;10141557;28;20547;-59
2021/05/08 20:50:50;;;;;;;2.47;1.83;;;;;;;;;;10141321;28;20390;-58
2021/05/08 20:55:47;;;;;;;4.23;2.63;;;;;;;;;;10147194;28;20485;-57
2021/05/08 21:00:44;;;;;;;4.90;2.13;;;;;;;;;;10160136;28;20483;-60
2021/05/08 21:05:48;;;;;;;3.70;2.07;;;;;;;;;;10153856;28;20050;-58
2021/05/08 21:10:46;;;;;;;8.32;2.33;;;;;;;;;;10148385;28;20047;-60
2021/05/08 21:15:45;;;;;;;3.13;2.22;;;;;;;;;;10145414;28;20491;-61
2021/05/08 21:20:43;;;;;;;2.72;2.03;;;;;;;;;;10151968;28;20217;-60
2021/05/08 21:25:41;;;;;;;5.77;2.07;;;;;;;;;;10152484;28;20207;-59
2021/05/08 21:30:38;;;;;;;4.27;1.90;;;;;;;;;;10155390;28;20039;-57
2021/05/08 21:35:35;;;;;;;3.20;2.03;;;;;;;;;;10147254;28;20040;-58
2021/05/08 21:40:33;;;;;;;7.40;2.00;;;;;;;;;;10151208;28;20063;-59
2021/05/08 21:45:31;;;;;;;4.13;3.10;;;;;;;;;;10148057;28;20035;-60
2021/05/08 21:50:28;;;;;;;2.27;1.87;;;;;;;;;;10155883;28;20453;-58
2021/05/08 21:55:26;;;;;;;2.87;2.10;;;;;;;;;;10151572;28;20366;-59
2021/05/08 22:00:25;;;;;;;5.13;2.43;;;;;;;;;;10149190;28;20035;-60
2021/05/08 22:05:24;;;;;;;4.80;2.10;;;;;;;;;;10144846;28;20035;-60
2021/05/08 22:10:22;;;;;;;5.60;2.17;;;;;;;;;;10143188;28;20039;-59
2021/05/08 22:15:19;;;;;;;3.03;2.17;;;;;;;;;;10150126;28;20045;-61
2021/05/08 22:20:17;;;;;;;3.10;1.73;;;;;;;;;;10154982;28;20065;-59
2021/05/08 22:25:15;;;;;;;3.50;2.00;;;;;;;;;;10157911;28;20062;-60
2021/05/08 22:30:13;;;;;;;4.40;2.60;;;;;;;;;;10159283;28;20039;-62
2021/05/08 22:35:13;;;;;;;3.75;2.05;;;;;;;;;;10150198;28;20050;-61
2021/05/08 22:40:11;;;;;;;3.75;2.13;;;;;;;;;;10184067;28;20049;-60
2021/05/08 22:45:09;;;;;;;4.87;2.33;;;;;;;;;;10156819;28;20381;-63
2021/05/08 22:50:10;;;;;;;2.00;1.50;;;;;;;;;;10162779;28;20031;-63
2021/05/08 22:55:08;;;;;;;4.00;2.08;;;;;;;;;;10152065;28;20551;-62
2021/05/08 23:00:11;;;;;;;5.32;2.45;;;;;;;;;;10157703;28;20503;-62
2021/05/08 23:05:09;;;;;;;3.90;2.17;;;;;;;;;;10158601;28;20507;-61
2021/05/08 23:10:06;;;;;;;6.17;2.57;;;;;;;;;;10165437;28;20125;-61
2021/05/08 23:15:04;;;;;;;4.30;2.27;;;;;;;;;;10149822;28;20496;-62
2021/05/08 23:20:03;;;;;;;3.67;2.22;;;;;;;;;;10163909;28;20070;-63
2021/05/08 23:25:00;;;;;;;5.95;1.83;;;;;;;;;;10129367;28;20053;-64
2021/05/08 23:29:57;;;;;;;4.03;2.17;;;;;;;;;;10152200;28;20035;-61
2021/05/08 23:34:55;;;;;;;4.70;2.73;;;;;;;;;;10162443;28;20467;-63
2021/05/08 23:39:52;;;;;;;2.23;1.77;;;;;;;;;;10158130;28;20053;-62
2021/05/08 23:44:49;;;;;;;3.20;2.40;;;;;;;;;;10157901;28;20384;-62
2021/05/08 23:49:48;;;;;;;2.17;1.97;;;;;;;;;;10169788;28;20038;-61
2021/05/08 23:54:45;;;;;;;2.85;1.70;;;;;;;;;;10153998;28;20053;-62
2021/05/08 23:59:43;;;;;;;3.77;2.43;;;;;;;;;;10158450;28;20039;-62
